Time;durP1;ratioP1;P1;durP2;ratioP2;P2;SDS_P1;SDS_P2;PMS_P1;PMS_P2;Temp;Humidity;BMP_temperature;BMP_pressure;BME280_temperature;BME280_humidity;BME280_pressure;Samples;Min_cycle;Max_cycle;Signal;HPM_P1;HPM_P2
2021/04/19 00:01:43;;;;;;;5.93;4.30;;;7.60;87.70;;;;;;4938743;29;20056;-86
2021/04/19 00:04:12;;;;;;;5.93;4.32;;;7.50;87.40;;;;;;4937114;29;20084;-86
2021/04/19 00:06:39;;;;;;;6.97;4.22;;;7.50;87.60;;;;;;4937164;29;20024;-86
2021/04/19 00:09:05;;;;;;;6.18;4.45;;;7.40;87.90;;;;;;4937252;29;20024;-86
2021/04/19 00:11:31;;;;;;;6.20;4.15;;;7.40;88.20;;;;;;4937134;29;20059;-86
2021/04/19 00:13:57;;;;;;;6.60;4.63;;;7.40;88.30;;;;;;4936944;29;20479;-85
2021/04/19 00:16:23;;;;;;;6.95;4.45;;;7.40;88.70;;;;;;4937038;29;20036;-86
2021/04/19 00:18:48;;;;;;;6.70;4.00;;;7.40;89.20;;;;;;4936933;29;20464;-86
2021/04/19 00:21:14;;;;;;;6.90;4.50;;;7.50;89.20;;;;;;4938181;29;20082;-86
2021/04/19 00:23:40;;;;;;;8.15;5.68;;;7.60;88.80;;;;;;4936746;29;20032;-86
2021/04/19 00:26:05;;;;;;;6.95;5.25;;;7.50;87.90;;;;;;4936819;29;20039;-86
2021/04/19 00:28:31;;;;;;;6.18;4.75;;;7.50;88.30;;;;;;4938102;29;20114;-86
2021/04/19 00:30:57;;;;;;;7.25;5.18;;;7.50;88.60;;;;;;4938014;29;20051;-86
2021/04/19 00:33:23;;;;;;;6.53;4.80;;;7.40;87.80;;;;;;4936690;29;20475;-86
2021/04/19 00:35:49;;;;;;;8.45;5.38;;;7.30;87.50;;;;;;4936588;29;20035;-86
2021/04/19 00:38:14;;;;;;;7.65;6.28;;;7.20;87.40;;;;;;4937968;29;20032;-85
2021/04/19 00:40:41;;;;;;;10.32;7.90;;;7.00;88.00;;;;;;4936380;29;20384;-86
2021/04/19 00:43:07;;;;;;;9.23;6.65;;;6.90;88.30;;;;;;4936118;29;20035;-86
2021/04/19 00:45:34;;;;;;;8.25;5.93;;;6.80;88.80;;;;;;4936389;29;20027;-86
2021/04/19 00:48:00;;;;;;;7.20;5.22;;;6.70;89.40;;;;;;4936928;29;20063;-86
2021/04/19 00:50:31;;;;;;;9.85;7.13;;;6.60;90.30;;;;;;4937628;29;20036;-86
2021/04/19 00:52:57;;;;;;;10.15;7.40;;;6.60;90.20;;;;;;4952155;29;20142;-86
2021/04/19 00:55:23;;;;;;;10.73;7.18;;;6.50;90.20;;;;;;4920255;29;20031;-86
2021/04/19 00:57:49;;;;;;;7.22;5.68;;;6.50;90.60;;;;;;4936184;29;20515;-86
2021/04/19 01:00:34;;;;;;;9.02;6.25;;;6.40;90.40;;;;;;4936179;29;20034;-86
2021/04/19 01:03:00;;;;;;;10.63;5.82;;;6.30;90.50;;;;;;4937359;29;20039;-86
2021/04/19 01:05:36;;;;;;;8.05;5.63;;;6.20;90.10;;;;;;4937157;29;20080;-85
2021/04/19 01:08:02;;;;;;;7.53;5.13;;;6.10;90.10;;;;;;4935558;29;20028;-86
2021/04/19 01:10:28;;;;;;;9.48;5.53;;;6.10;90.10;;;;;;4937238;29;20345;-86
2021/04/19 01:12:54;;;;;;;7.88;4.97;;;6.00;90.10;;;;;;4935905;29;20038;-85
2021/04/19 01:15:20;;;;;;;7.47;5.40;;;5.90;90.40;;;;;;4936027;29;20027;-85
2021/04/19 01:17:46;;;;;;;9.60;6.57;;;5.80;90.50;;;;;;4935707;29;20469;-86
2021/04/19 01:20:16;;;;;;;11.57;7.03;;;5.80;91.00;;;;;;4935839;29;20031;-85
2021/04/19 01:22:43;;;;;;;8.27;5.63;;;5.70;91.10;;;;;;4952048;29;20383;-85
2021/04/19 01:25:13;;;;;;;10.55;7.07;;;5.60;90.90;;;;;;4935767;29;20027;-86
2021/04/19 01:27:39;;;;;;;9.32;5.82;;;5.60;91.30;;;;;;4935967;29;20498;-85
2021/04/19 01:30:06;;;;;;;13.00;8.85;;;5.50;91.00;;;;;;4935603;29;20060;-86
2021/04/19 01:32:32;;;;;;;11.60;7.78;;;5.50;91.10;;;;;;4937278;29;20038;-86
2021/04/19 01:34:58;;;;;;;12.02;7.72;;;5.50;91.30;;;;;;4936346;29;20428;-86
2021/04/19 01:37:23;;;;;;;13.07;9.30;;;5.40;91.50;;;;;;4935831;29;20039;-86
2021/04/19 01:39:50;;;;;;;10.57;7.47;;;5.40;92.10;;;;;;4936829;29;20424;-86
2021/04/19 01:42:16;;;;;;;12.93;8.05;;;5.40;91.60;;;;;;4935664;29;20032;-85
2021/04/19 01:44:41;;;;;;;12.43;8.93;;;5.40;92.30;;;;;;4936602;29;20052;-86
2021/04/19 01:47:07;;;;;;;12.85;8.80;;;5.40;92.50;;;;;;4936782;29;20383;-86
2021/04/19 01:49:33;;;;;;;11.23;7.22;;;5.40;92.00;;;;;;4935232;29;20467;-85
2021/04/19 01:52:00;;;;;;;9.27;5.68;;;5.40;92.10;;;;;;4935192;29;20059;-86
2021/04/19 01:54:26;;;;;;;7.50;5.57;;;5.40;91.80;;;;;;4935400;29;20060;-86
2021/04/19 01:56:53;;;;;;;7.40;4.38;;;5.50;92.10;;;;;;4935563;29;20052;-85
2021/04/19 01:59:19;;;;;;;8.40;5.88;;;5.50;92.10;;;;;;4936819;29;20060;-86
2021/04/19 02:02:14;;;;;;;7.60;5.20;;;5.60;92.10;;;;;;4935235;29;20035;-86
2021/04/19 02:04:52;;;;;;;6.35;4.47;;;5.60;92.10;;;;;;4919351;29;20032;-86
2021/04/19 02:07:20;;;;;;;8.90;5.30;;;5.60;92.00;;;;;;4935340;29;20059;-86
2021/04/19 02:09:58;;;;;;;7.38;4.78;;;5.70;92.10;;;;;;4935427;29;20043;-85
2021/04/19 02:12:39;;;;;;;7.22;5.28;;;5.70;91.90;;;;;;4936230;29;20039;-86
2021/04/19 02:15:27;;;;;;;7.88;5.50;;;5.70;91.80;;;;;;4935273;29;20032;-86
2021/04/19 02:18:24;;;;;;;9.90;6.47;;;5.80;91.80;;;;;;4935274;29;20031;-85
2021/04/19 02:21:04;;;;;;;8.63;5.97;;;5.70;91.90;;;;;;4938469;29;20475;-85
2021/04/19 02:23:45;;;;;;;8.75;5.32;;;5.70;91.70;;;;;;4939018;29;20034;-86
2021/04/19 02:26:22;;;;;;;8.25;5.65;;;5.60;91.50;;;;;;4939012;29;20035;-85
2021/04/19 02:28:56;;;;;;;8.38;5.47;;;5.60;91.60;;;;;;4939192;29;20027;-86
2021/04/19 02:31:23;;;;;;;9.70;6.93;;;5.50;91.80;;;;;;4940443;29;20048;-86
2021/04/19 02:33:53;;;;;;;9.73;6.75;;;5.50;91.70;;;;;;4940154;29;20455;-86
2021/04/19 02:36:19;;;;;;;10.57;6.97;;;5.50;91.50;;;;;;4939092;29;20043;-86
2021/04/19 02:38:49;;;;;;;13.98;9.25;;;5.40;91.50;;;;;;4940125;29;20038;-86
2021/04/19 02:41:17;;;;;;;16.52;11.15;;;5.50;92.00;;;;;;4939952;29;20027;-86
2021/04/19 02:43:43;;;;;;;17.50;10.10;;;5.40;92.20;;;;;;4939891;29;20035;-86
2021/04/19 02:46:10;;;;;;;15.88;10.95;;;5.40;92.30;;;;;;4939829;29;20023;-86
2021/04/19 02:48:37;;;;;;;13.88;8.75;;;5.30;92.40;;;;;;4938305;29;20024;-85
2021/04/19 02:51:08;;;;;;;15.02;9.80;;;5.30;92.20;;;;;;4938624;29;20043;-85
2021/04/19 02:53:35;;;;;;;14.85;9.52;;;5.30;92.40;;;;;;4938466;29;20153;-86
2021/04/19 02:56:04;;;;;;;11.80;7.97;;;5.30;92.30;;;;;;4954701;29;20391;-86
2021/04/19 02:58:38;;;;;;;12.60;8.25;;;5.20;92.30;;;;;;4939543;29;20024;-86
2021/04/19 03:01:08;;;;;;;12.05;7.97;;;5.20;92.40;;;;;;4939856;29;20088;-85
2021/04/19 03:03:36;;;;;;;12.38;7.70;;;5.20;92.80;;;;;;4938249;29;20038;-85
2021/04/19 03:06:04;;;;;;;13.25;9.25;;;5.30;92.50;;;;;;4938347;29;20028;-86
2021/04/19 03:08:33;;;;;;;10.13;6.95;;;5.30;92.50;;;;;;4938133;29;20127;-86
2021/04/19 03:11:07;;;;;;;9.57;6.22;;;5.30;92.70;;;;;;4939654;29;20020;-85
2021/04/19 03:13:36;;;;;;;12.80;8.40;;;5.40;92.60;;;;;;4941864;29;20054;-87
2021/04/19 03:16:04;;;;;;;13.15;9.00;;;5.40;92.80;;;;;;4941373;29;20050;-85
2021/04/19 03:18:34;;;;;;;10.25;7.35;;;5.40;92.70;;;;;;4935926;29;20031;-85
2021/04/19 03:21:09;;;;;;;10.43;7.47;;;5.40;92.50;;;;;;4945539;29;20031;-85
2021/04/19 03:23:41;;;;;;;11.05;7.80;;;5.50;92.60;;;;;;4938110;29;20039;-84
2021/04/19 03:26:08;;;;;;;11.85;7.95;;;5.50;92.70;;;;;;4939613;29;20035;-85
2021/04/19 03:28:35;;;;;;;11.43;7.97;;;5.50;92.70;;;;;;4937767;29;20032;-85
2021/04/19 03:31:04;;;;;;;11.20;7.57;;;5.60;92.70;;;;;;4938232;29;20058;-85
2021/04/19 03:33:30;;;;;;;11.27;8.23;;;5.60;92.90;;;;;;4937427;29;20032;-85
2021/04/19 03:35:56;;;;;;;12.90;8.77;;;5.60;92.90;;;;;;4937821;29;20039;-86
2021/04/19 03:38:23;;;;;;;10.98;7.72;;;5.70;92.90;;;;;;4939179;29;20036;-85
2021/04/19 03:40:51;;;;;;;12.10;8.07;;;5.70;92.50;;;;;;4938859;29;20067;-85
2021/04/19 03:43:19;;;;;;;13.85;8.23;;;5.70;92.50;;;;;;4953504;29;20032;-85
2021/04/19 03:45:50;;;;;;;13.98;8.60;;;5.70;92.70;;;;;;4938093;29;20034;-85
2021/04/19 03:48:19;;;;;;;12.40;8.13;;;5.70;92.60;;;;;;4937583;29;20027;-85
2021/04/19 03:51:08;;;;;;;13.27;8.30;;;5.80;92.60;;;;;;4938781;29;20083;-85
2021/04/19 03:53:35;;;;;;;9.68;7.07;;;5.80;92.60;;;;;;4937777;29;20036;-85
2021/04/19 03:56:02;;;;;;;11.65;8.45;;;5.90;92.40;;;;;;4938641;29;20066;-85
2021/04/19 03:58:31;;;;;;;12.23;7.90;;;5.90;92.60;;;;;;4938854;29;20047;-85
2021/04/19 04:00:59;;;;;;;11.98;8.77;;;5.90;92.50;;;;;;4938500;29;20471;-85
2021/04/19 04:03:25;;;;;;;13.25;9.10;;;5.90;92.60;;;;;;4938779;29;20038;-85
2021/04/19 04:05:52;;;;;;;12.18;7.88;;;6.00;92.60;;;;;;4937127;29;20122;-85
2021/04/19 04:08:18;;;;;;;10.98;8.57;;;6.00;92.50;;;;;;4936933;29;20039;-85
2021/04/19 04:10:46;;;;;;;12.00;9.10;;;6.10;92.60;;;;;;4938376;29;20035;-85
2021/04/19 04:13:12;;;;;;;14.52;9.45;;;6.10;92.60;;;;;;4938205;29;20027;-85
2021/04/19 04:15:57;;;;;;;10.27;7.25;;;6.10;92.60;;;;;;4936732;29;20035;-86
2021/04/19 04:18:23;;;;;;;11.60;8.48;;;6.20;92.60;;;;;;4937197;29;20035;-85
2021/04/19 04:20:49;;;;;;;11.57;8.10;;;6.30;92.50;;;;;;4936909;29;20032;-85
2021/04/19 04:23:16;;;;;;;10.43;6.70;;;6.30;92.40;;;;;;4938039;29;20032;-85
2021/04/19 04:25:43;;;;;;;8.98;5.90;;;6.40;92.60;;;;;;4936448;29;20391;-85
2021/04/19 04:28:09;;;;;;;10.55;6.47;;;6.50;92.80;;;;;;4936619;29;20039;-85
2021/04/19 04:30:35;;;;;;;10.30;6.93;;;6.70;92.80;;;;;;4937807;29;20372;-85
2021/04/19 04:33:06;;;;;;;10.25;7.25;;;6.90;92.70;;;;;;4936655;29;20032;-85
2021/04/19 04:35:33;;;;;;;11.50;7.25;;;7.00;92.40;;;;;;4937906;29;20375;-85
2021/04/19 04:37:59;;;;;;;12.15;7.07;;;7.10;91.90;;;;;;4936371;29;20083;-85
2021/04/19 04:40:25;;;;;;;11.30;7.85;;;7.20;91.70;;;;;;4936685;29;20039;-84
2021/04/19 04:42:56;;;;;;;12.10;8.57;;;7.20;91.40;;;;;;4935128;29;20039;-85
2021/04/19 04:45:23;;;;;;;12.75;9.63;;;7.10;91.10;;;;;;4936318;29;20035;-84
2021/04/19 04:47:59;;;;;;;11.65;8.38;;;7.10;90.90;;;;;;4920137;29;20034;-84
2021/04/19 04:50:45;;;;;;;10.85;8.13;;;7.00;90.70;;;;;;4936437;29;20412;-85
2021/04/19 04:53:26;;;;;;;12.23;7.72;;;7.00;90.60;;;;;;4936128;29;20031;-84
2021/04/19 04:55:54;;;;;;;8.65;6.03;;;6.90;90.60;;;;;;4936798;29;20035;-84
2021/04/19 04:58:20;;;;;;;10.05;6.40;;;7.00;90.90;;;;;;4936110;29;20036;-85
2021/04/19 05:00:46;;;;;;;9.20;6.57;;;7.10;91.10;;;;;;4936443;29;20036;-85
2021/04/19 05:03:15;;;;;;;8.57;6.97;;;7.30;91.40;;;;;;4941392;29;20031;-84
2021/04/19 05:05:41;;;;;;;9.18;6.53;;;7.40;91.00;;;;;;4942633;29;20047;-84
2021/04/19 05:08:11;;;;;;;9.50;7.00;;;7.50;90.60;;;;;;4946047;29;20063;-87
2021/04/19 05:10:41;;;;;;;10.30;6.50;;;7.50;90.20;;;;;;4948073;29;20042;-85
2021/04/19 05:13:15;;;;;;;11.13;7.70;;;7.50;90.20;;;;;;4947157;29;20064;-85
2021/04/19 05:15:42;;;;;;;12.00;7.32;;;7.50;90.20;;;;;;4947315;29;20027;-86
2021/04/19 05:18:11;;;;;;;11.40;7.28;;;7.50;90.20;;;;;;4937384;29;20091;-84
2021/04/19 05:20:37;;;;;;;9.15;6.78;;;7.70;90.50;;;;;;4935900;29;20091;-84
2021/04/19 05:23:03;;;;;;;7.68;5.60;;;7.90;90.70;;;;;;4934862;29;20035;-86
2021/04/19 05:25:28;;;;;;;9.32;6.97;;;8.20;91.00;;;;;;4936879;29;20020;-85
2021/04/19 05:27:58;;;;;;;8.63;7.13;;;8.40;88.90;;;;;;4935523;29;20058;-86
2021/04/19 05:30:25;;;;;;;10.52;7.97;;;8.40;88.40;;;;;;4937195;29;20075;-86
2021/04/19 05:32:50;;;;;;;10.00;7.70;;;8.40;87.20;;;;;;4935344;29;20131;-86
2021/04/19 05:35:21;;;;;;;11.90;7.90;;;8.30;86.60;;;;;;4936771;29;20046;-86
2021/04/19 05:37:49;;;;;;;11.88;7.28;;;8.30;87.80;;;;;;4920116;29;20032;-86
2021/04/19 05:40:16;;;;;;;9.70;6.63;;;8.30;87.60;;;;;;4936342;29;20099;-86
2021/04/19 05:42:42;;;;;;;10.20;7.07;;;8.30;87.80;;;;;;4936883;29;20574;-86
2021/04/19 05:45:09;;;;;;;8.65;7.22;;;8.60;88.30;;;;;;4935703;29;20534;-87
2021/04/19 05:47:37;;;;;;;10.52;7.43;;;8.60;86.30;;;;;;4935840;29;20024;-86
2021/04/19 05:50:05;;;;;;;9.80;7.60;;;8.60;86.00;;;;;;4935760;29;20446;-86
2021/04/19 05:52:30;;;;;;;9.57;7.18;;;8.70;86.50;;;;;;4935219;29;20122;-86
2021/04/19 05:54:56;;;;;;;8.63;6.20;;;8.80;86.80;;;;;;4935552;29;20071;-86
2021/04/19 05:57:47;;;;;;;9.52;7.50;;;9.00;86.20;;;;;;4937368;29;20028;-86
2021/04/19 06:00:24;;;;;;;10.25;7.03;;;9.10;83.30;;;;;;4939141;29;20034;-87
2021/04/19 06:03:01;;;;;;;7.80;5.95;;;9.10;83.40;;;;;;4957906;29;20103;-86
2021/04/19 06:05:29;;;;;;;8.50;6.35;;;9.20;84.60;;;;;;4958510;29;20023;-85
2021/04/19 06:08:18;;;;;;;7.38;5.97;;;9.50;85.20;;;;;;4941111;29;20079;-85
2021/04/19 06:10:52;;;;;;;8.00;5.75;;;9.80;84.80;;;;;;4935760;29;20035;-85
2021/04/19 06:13:20;;;;;;;9.00;6.90;;;10.00;84.00;;;;;;4935546;29;20042;-85
2021/04/19 06:15:51;;;;;;;9.73;7.18;;;10.20;82.90;;;;;;4936865;29;20064;-85
2021/04/19 06:18:24;;;;;;;8.30;6.70;;;10.10;80.90;;;;;;4937057;29;20365;-85
2021/04/19 06:20:55;;;;;;;10.18;7.60;;;10.10;80.60;;;;;;4935351;29;20123;-85
2021/04/19 06:23:22;;;;;;;8.32;6.30;;;10.00;80.60;;;;;;4935514;29;20468;-85
2021/04/19 06:25:48;;;;;;;11.38;7.63;;;9.90;81.00;;;;;;4935190;29;20090;-85
2021/04/19 06:28:15;;;;;;;9.13;7.28;;;9.80;79.50;;;;;;4934715;29;20179;-85
2021/04/19 06:30:43;;;;;;;8.55;7.00;;;9.70;79.00;;;;;;4934256;29;20058;-85
2021/04/19 06:33:20;;;;;;;7.18;5.85;;;9.60;79.70;;;;;;4934609;29;20028;-85
2021/04/19 06:35:47;;;;;;;8.68;6.40;;;9.50;80.30;;;;;;4934945;29;20472;-85
2021/04/19 06:38:13;;;;;;;9.07;6.95;;;9.60;81.10;;;;;;4934638;29;20032;-85
2021/04/19 06:40:40;;;;;;;11.52;7.50;;;9.70;80.80;;;;;;4935914;29;20028;-86
2021/04/19 06:43:06;;;;;;;9.40;7.70;;;9.80;80.00;;;;;;4918711;29;20047;-86
2021/04/19 06:45:35;;;;;;;10.35;7.40;;;9.80;79.70;;;;;;4919069;29;20047;-86
2021/04/19 06:48:04;;;;;;;8.77;6.88;;;9.80;79.30;;;;;;4935664;29;20024;-86
2021/04/19 06:50:30;;;;;;;8.48;7.35;;;9.80;79.30;;;;;;4935621;29;20030;-85
2021/04/19 06:52:56;;;;;;;8.43;6.85;;;9.70;78.90;;;;;;4935674;29;20063;-86
2021/04/19 06:55:22;;;;;;;8.75;7.20;;;9.70;79.20;;;;;;4934787;29;20078;-86
2021/04/19 06:58:00;;;;;;;9.45;6.72;;;9.70;79.30;;;;;;4936255;29;20028;-85
2021/04/19 07:00:31;;;;;;;8.50;7.57;;;9.80;78.70;;;;;;4942362;29;20066;-86
2021/04/19 07:03:03;;;;;;;9.35;7.70;;;9.80;78.70;;;;;;4948330;29;20059;-87
2021/04/19 07:05:36;;;;;;;12.45;10.02;;;9.80;78.40;;;;;;4949002;29;20027;-87
2021/04/19 07:08:15;;;;;;;9.23;8.02;;;9.70;78.00;;;;;;4955246;29;20030;-87
2021/04/19 07:10:44;;;;;;;11.20;8.15;;;9.70;78.50;;;;;;4949306;29;20050;-89
2021/04/19 07:13:11;;;;;;;8.48;7.07;;;9.80;78.60;;;;;;4925697;29;20475;-87
2021/04/19 07:15:46;;;;;;;8.57;7.45;;;9.80;78.40;;;;;;4931676;29;20034;-89
2021/04/19 07:18:18;;;;;;;9.55;8.00;;;9.90;78.40;;;;;;4940329;29;20452;-89
2021/04/19 07:20:44;;;;;;;10.05;7.55;;;10.00;79.20;;;;;;4933604;29;20044;-87
2021/04/19 07:23:11;;;;;;;9.35;7.75;;;10.10;77.70;;;;;;4920876;29;20042;-89
2021/04/19 07:25:37;;;;;;;8.95;6.60;;;10.20;77.20;;;;;;4940859;29;20100;-87
2021/04/19 07:28:05;;;;;;;9.32;7.78;;;10.20;77.40;;;;;;4933629;29;20063;-88
2021/04/19 07:30:31;;;;;;;8.70;7.03;;;10.40;76.70;;;;;;4935581;29;20135;-90
2021/04/19 07:32:57;;;;;;;12.38;9.73;;;10.40;76.40;;;;;;4934506;29;20455;-89
2021/04/19 07:35:28;;;;;;;7.82;6.47;;;10.50;76.10;;;;;;4928771;29;20147;-91
2021/04/19 07:37:56;;;;;;;9.05;7.18;;;10.60;76.20;;;;;;4932618;29;20058;-89
2021/04/19 07:40:29;;;;;;;8.63;7.45;;;10.70;75.10;;;;;;4933698;29;20098;-90
2021/04/19 07:43:16;;;;;;;7.97;6.45;;;10.70;73.90;;;;;;4909523;29;20055;-89
2021/04/19 07:46:08;;;;;;;7.22;6.50;;;10.70;73.70;;;;;;4923852;29;20031;-90
2021/04/19 07:48:41;;;;;;;8.27;6.78;;;10.80;74.60;;;;;;4909574;29;20555;-89
2021/04/19 07:51:31;;;;;;;6.70;5.45;;;11.00;74.80;;;;;;4931852;29;20031;-89
2021/04/19 07:54:30;;;;;;;8.25;7.10;;;11.20;73.90;;;;;;4929893;29;20494;-91
2021/04/19 07:56:55;;;;;;;7.20;6.03;;;11.30;71.30;;;;;;4908479;29;20040;-89
2021/04/19 07:59:31;;;;;;;8.48;6.47;;;11.30;72.40;;;;;;4935939;29;20028;-88
2021/04/19 08:02:20;;;;;;;7.57;6.43;;;11.40;73.60;;;;;;4934329;29;20122;-90
2021/04/19 08:04:50;;;;;;;7.35;5.95;;;11.50;70.50;;;;;;4914719;29;20031;-88
2021/04/19 08:07:53;;;;;;;6.80;5.60;;;11.60;73.00;;;;;;4921382;29;20028;-89
2021/04/19 08:10:21;;;;;;;8.48;7.18;;;11.90;73.30;;;;;;4922325;29;20038;-89
2021/04/19 08:12:48;;;;;;;7.57;6.30;;;12.00;71.50;;;;;;4954290;28;20039;-88
2021/04/19 08:15:19;;;;;;;7.97;7.18;;;12.10;72.00;;;;;;4932607;29;20056;-89
2021/04/19 08:17:47;;;;;;;8.57;6.47;;;12.10;71.30;;;;;;4931716;29;20091;-89
2021/04/19 08:20:15;;;;;;;8.02;6.13;;;12.10;71.30;;;;;;4946269;29;20029;-91
2021/04/19 08:22:44;;;;;;;7.10;6.20;;;12.20;71.80;;;;;;4936618;29;20032;-89
2021/04/19 08:25:21;;;;;;;6.88;5.75;;;12.40;71.60;;;;;;4916908;29;20040;-89
2021/04/19 08:28:00;;;;;;;6.60;5.28;;;12.50;71.50;;;;;;4941403;29;20087;-89
2021/04/19 08:30:27;;;;;;;9.05;6.25;;;12.80;71.20;;;;;;4957862;29;20124;-88
2021/04/19 08:32:56;;;;;;;10.30;7.80;;;12.80;69.30;;;;;;4936542;29;20035;-88
2021/04/19 08:35:25;;;;;;;8.93;7.68;;;12.80;68.40;;;;;;4927931;29;20027;-89
2021/04/19 08:37:56;;;;;;;7.95;6.85;;;12.70;68.30;;;;;;4937768;29;20100;-90
2021/04/19 08:40:23;;;;;;;7.43;6.15;;;12.60;68.00;;;;;;4938470;29;20053;-88
2021/04/19 08:42:50;;;;;;;6.85;6.07;;;12.60;68.20;;;;;;4951348;29;20035;-89
2021/04/19 08:45:16;;;;;;;6.90;5.47;;;12.50;68.20;;;;;;4931469;29;20032;-90
2021/04/19 08:47:44;;;;;;;6.20;5.38;;;12.30;68.50;;;;;;4926150;29;20101;-88
2021/04/19 08:50:16;;;;;;;8.10;6.18;;;12.20;68.30;;;;;;4934884;29;20053;-89
2021/04/19 08:52:44;;;;;;;6.18;4.78;;;12.20;68.50;;;;;;4953220;29;20102;-91
2021/04/19 08:55:12;;;;;;;6.63;5.07;;;12.20;69.10;;;;;;4951943;29;20030;-89
2021/04/19 08:57:41;;;;;;;7.60;5.95;;;12.30;69.50;;;;;;4946139;29;20028;-92
2021/04/19 09:00:08;;;;;;;5.63;4.78;;;12.60;69.80;;;;;;4945678;29;20102;-88
2021/04/19 09:02:36;;;;;;;6.82;5.43;;;12.90;70.00;;;;;;4948205;29;20028;-89
2021/04/19 09:05:07;;;;;;;8.75;6.43;;;13.20;67.90;;;;;;4930346;29;20028;-88
2021/04/19 09:07:35;;;;;;;6.53;5.47;;;13.30;65.20;;;;;;4931365;29;20044;-91
2021/04/19 11:10:31;;;;;;;3.58;2.88;;;16.40;51.80;;;;;;4876588;29;20071;-88
2021/04/19 11:13:52;;;;;;;4.20;3.13;;;16.50;51.60;;;;;;4804548;29;20742;-88
2021/04/19 11:16:57;;;;;;;3.33;3.03;;;16.70;50.20;;;;;;4812462;29;20097;-87
2021/04/19 11:20:20;;;;;;;3.00;2.70;;;16.80;51.80;;;;;;4783771;29;20043;-88
2021/04/19 11:27:24;;;;;;;4.55;3.55;;;16.80;50.20;;;;;;4727357;30;20047;-88
2021/04/19 11:41:02;;;;;;;3.85;2.80;;;16.10;50.80;;;;;;4768288;30;20122;-88
2021/04/19 11:51:06;;;;;;;3.92;3.55;;;15.90;51.80;;;;;;4797713;29;20059;-88
2021/04/19 14:35:05;;;;;;;3.53;3.10;;;17.70;48.20;;;;;;4835749;29;20058;-87
2021/04/19 14:51:58;;;;;;;;;;;;;;;;;;;;;
2021/04/19 14:55:07;;;;;;;;;;;;;;;;;;;;;
2021/04/19 16:22:15;;;;;;;5.57;2.88;;;13.40;55.10;;;;;;4732966;30;20139;-90
2021/04/19 16:24:41;;;;;;;4.50;3.45;;;13.40;55.40;;;;;;4791782;29;20051;-89
2021/04/19 16:27:10;;;;;;;4.60;3.47;;;13.30;55.30;;;;;;4807410;29;20030;-89
2021/04/19 16:29:36;;;;;;;4.25;3.00;;;13.30;55.70;;;;;;4793328;29;20459;-90
2021/04/19 16:32:03;;;;;;;4.22;3.63;;;13.20;55.70;;;;;;4809822;29;20046;-90
2021/04/19 16:34:29;;;;;;;3.92;2.88;;;13.10;55.90;;;;;;4809906;29;20141;-90
2021/04/19 16:36:56;;;;;;;4.00;3.47;;;13.00;56.20;;;;;;4824844;29;20133;-90
2021/04/19 16:39:22;;;;;;;4.68;3.58;;;12.90;56.40;;;;;;4808999;29;20041;-90
2021/04/19 16:41:49;;;;;;;4.80;3.80;;;12.80;56.60;;;;;;4810396;29;20447;-89
2021/04/19 16:44:17;;;;;;;4.30;3.47;;;12.70;56.80;;;;;;4824794;29;20061;-89
2021/04/19 16:46:45;;;;;;;5.15;3.97;;;12.60;57.10;;;;;;4794853;29;20038;-89
2021/04/19 16:49:11;;;;;;;5.40;3.72;;;12.50;57.20;;;;;;4810505;29;20117;-89
2021/04/19 16:51:37;;;;;;;4.55;3.60;;;12.40;57.40;;;;;;4810395;29;20126;-89
2021/04/19 16:54:06;;;;;;;5.03;4.07;;;12.30;57.60;;;;;;4809618;29;20042;-90
2021/04/19 16:56:32;;;;;;;5.63;4.15;;;12.30;57.90;;;;;;4810021;29;20117;-89
2021/04/19 16:59:01;;;;;;;4.65;3.30;;;12.20;58.10;;;;;;4826661;29;20080;-90
2021/04/19 17:01:27;;;;;;;5.05;3.40;;;12.20;58.30;;;;;;4810435;29;20033;-89
2021/04/19 17:03:53;;;;;;;4.60;3.88;;;12.20;58.60;;;;;;4826738;29;20031;-90
2021/04/19 17:06:22;;;;;;;5.63;3.65;;;12.20;58.80;;;;;;4809466;29;20079;-89
2021/04/19 17:08:48;;;;;;;5.20;3.42;;;12.20;59.00;;;;;;4825125;29;20351;-89
2021/04/19 17:11:14;;;;;;;4.63;3.65;;;12.20;59.00;;;;;;4825232;29;20045;-90
2021/04/19 17:13:40;;;;;;;5.30;3.88;;;12.20;59.00;;;;;;4809650;29;20098;-91
2021/04/19 17:16:06;;;;;;;7.90;4.40;;;12.10;59.20;;;;;;4824982;29;20437;-91
2021/04/19 17:18:35;;;;;;;6.07;4.25;;;12.20;59.20;;;;;;4824774;29;20125;-92
2021/04/19 17:21:01;;;;;;;6.28;4.00;;;12.10;59.30;;;;;;4826056;29;20037;-90
2021/04/19 17:23:28;;;;;;;4.75;3.85;;;12.10;59.40;;;;;;4824752;29;20129;-90
2021/04/19 17:25:54;;;;;;;6.40;3.70;;;12.10;60.00;;;;;;4824476;29;20486;-90
2021/04/19 17:28:20;;;;;;;6.32;4.43;;;12.10;59.50;;;;;;4809653;29;20479;-89
2021/04/19 17:30:49;;;;;;;6.25;4.78;;;12.10;59.70;;;;;;4809585;29;20034;-90
2021/04/19 17:33:17;;;;;;;5.22;4.40;;;12.10;59.80;;;;;;4843089;29;20119;-90
2021/04/19 17:35:43;;;;;;;5.07;4.20;;;12.00;59.90;;;;;;4842449;29;20033;-90
2021/04/19 17:38:10;;;;;;;5.05;3.88;;;12.00;59.90;;;;;;4843739;29;20118;-89
2021/04/19 17:40:39;;;;;;;5.35;4.43;;;12.00;60.20;;;;;;4828062;29;20034;-90
2021/04/19 17:43:05;;;;;;;6.75;4.90;;;12.00;60.40;;;;;;4842615;29;20030;-89
2021/04/19 17:45:33;;;;;;;6.10;4.38;;;12.00;60.40;;;;;;4843710;29;20064;-90
2021/04/19 17:48:00;;;;;;;6.20;4.00;;;11.90;60.40;;;;;;4843768;29;20037;-90
2021/04/19 17:50:26;;;;;;;9.90;4.95;;;11.90;60.50;;;;;;4827032;29;20470;-90
2021/04/19 17:52:52;;;;;;;6.82;4.78;;;11.90;60.80;;;;;;4827896;29;20030;-90
2021/04/19 17:55:21;;;;;;;5.45;4.68;;;11.80;60.80;;;;;;4859133;29;20046;-89
2021/04/19 17:57:47;;;;;;;7.68;5.10;;;11.80;60.90;;;;;;4848860;29;20021;-90
2021/04/19 18:00:14;;;;;;;7.22;5.30;;;11.70;61.00;;;;;;4863735;29;20029;-88
2021/04/19 18:02:41;;;;;;;7.22;4.97;;;11.70;61.40;;;;;;4863284;29;20042;-90
2021/04/19 18:05:08;;;;;;;6.03;4.75;;;11.70;61.70;;;;;;4852840;29;20029;-89
2021/04/19 18:07:34;;;;;;;5.65;4.63;;;11.60;61.70;;;;;;4842229;29;20030;-90
2021/04/19 18:09:59;;;;;;;6.95;4.95;;;11.60;61.70;;;;;;4842720;29;20216;-89
2021/04/19 18:12:25;;;;;;;8.25;4.95;;;11.50;62.20;;;;;;4843019;29;20073;-89
2021/04/19 18:14:51;;;;;;;6.22;4.43;;;11.50;62.10;;;;;;4842244;29;20034;-89
2021/04/19 18:17:19;;;;;;;5.88;4.30;;;11.40;62.10;;;;;;4841921;29;20141;-89
2021/04/19 18:19:45;;;;;;;6.13;4.18;;;11.40;62.30;;;;;;4842908;29;20078;-89
2021/04/19 18:22:11;;;;;;;5.05;3.83;;;11.30;62.50;;;;;;4841718;29;20030;-89
2021/04/19 18:24:39;;;;;;;5.68;3.72;;;11.30;63.00;;;;;;4840922;29;20486;-89
2021/04/19 18:27:05;;;;;;;7.03;4.50;;;11.30;63.10;;;;;;4840240;29;20048;-91
2021/04/19 18:29:31;;;;;;;7.13;4.55;;;11.30;63.10;;;;;;4841074;29;20040;-90
2021/04/19 18:31:59;;;;;;;6.00;3.80;;;11.30;63.80;;;;;;4845701;29;20140;-90
2021/04/19 18:34:25;;;;;;;6.10;4.25;;;11.30;64.10;;;;;;4843201;29;20034;-90
2021/04/19 18:36:54;;;;;;;6.85;4.38;;;11.30;64.30;;;;;;4843238;29;20053;-90
2021/04/19 18:39:22;;;;;;;6.55;4.78;;;11.30;64.10;;;;;;4842141;29;20394;-90
2021/04/19 18:41:48;;;;;;;7.18;5.57;;;11.30;64.30;;;;;;4842112;29;20036;-89
2021/04/19 18:44:14;;;;;;;8.40;5.38;;;11.30;64.30;;;;;;4841776;29;20041;-90
2021/04/19 18:46:39;;;;;;;7.72;5.28;;;11.30;65.00;;;;;;4842242;29;20042;-89
2021/04/19 18:49:06;;;;;;;8.38;6.07;;;11.20;65.20;;;;;;4842193;29;20443;-90
2021/04/19 18:51:35;;;;;;;7.95;5.88;;;11.20;65.50;;;;;;4841946;29;20037;-90
2021/04/19 18:54:01;;;;;;;7.70;5.82;;;11.20;65.50;;;;;;4841926;29;20157;-89
2021/04/19 18:56:28;;;;;;;9.02;5.90;;;11.20;65.40;;;;;;4842766;29;20064;-90
2021/04/19 18:58:55;;;;;;;6.78;5.82;;;11.20;65.70;;;;;;4857116;29;20041;-90
2021/04/19 19:01:24;;;;;;;6.57;5.13;;;11.20;66.00;;;;;;4869143;29;20030;-90
2021/04/19 19:03:50;;;;;;;7.97;5.70;;;11.20;65.80;;;;;;4876201;29;20559;-90
2021/04/19 19:06:16;;;;;;;10.65;7.00;;;11.20;65.70;;;;;;4877507;29;20030;-90
2021/04/19 19:08:43;;;;;;;10.10;6.03;;;11.20;65.60;;;;;;4854648;29;20434;-90
2021/04/19 19:11:11;;;;;;;6.60;5.53;;;11.20;65.70;;;;;;4846324;29;20030;-90
2021/04/19 19:13:42;;;;;;;9.90;6.30;;;11.20;65.60;;;;;;4857283;29;20042;-89
2021/04/19 19:16:11;;;;;;;8.90;6.50;;;11.20;65.70;;;;;;4849363;29;20034;-90
2021/04/19 19:18:38;;;;;;;10.18;6.13;;;11.10;66.10;;;;;;4846015;29;20086;-90
2021/04/19 19:21:04;;;;;;;10.77;7.03;;;11.10;66.20;;;;;;4847268;29;20041;-90
2021/04/19 19:23:31;;;;;;;8.63;6.28;;;11.00;67.00;;;;;;4845938;29;20037;-90
2021/04/19 19:25:57;;;;;;;7.80;5.50;;;11.00;66.90;;;;;;4845236;29;20038;-90
2021/04/19 19:28:24;;;;;;;7.85;5.65;;;10.90;66.70;;;;;;4845046;29;20030;-90
2021/04/19 19:30:50;;;;;;;6.72;5.20;;;10.90;66.90;;;;;;4860719;29;20056;-90
2021/04/19 19:33:17;;;;;;;6.93;5.07;;;10.90;66.90;;;;;;4868061;29;20123;-89
2021/04/19 19:35:44;;;;;;;7.60;5.75;;;10.90;66.90;;;;;;4877319;29;20062;-89
2021/04/19 19:38:10;;;;;;;6.85;5.47;;;10.90;67.10;;;;;;4875063;29;20115;-88
2021/04/19 19:40:37;;;;;;;9.32;6.38;;;10.90;67.20;;;;;;4873877;29;20050;-90
2021/04/19 19:43:03;;;;;;;10.18;6.43;;;10.80;67.00;;;;;;4872941;29;20102;-89
2021/04/19 19:45:29;;;;;;;7.10;6.22;;;10.70;67.30;;;;;;4868800;29;20462;-90
2021/04/19 19:47:56;;;;;;;7.45;5.80;;;10.70;68.00;;;;;;4867901;29;20072;-90